Data for 10/11/2015

Time Sea-Level Adjusted Pressure Absolute Pressure Temperature Relative Humidity Dew Point   
(mb) (inHg) (mb) (inHg) (C) (F) (%) (C) (F)
00:05 1009 29.8 839 24.78 21.2 70.1 20 -2.5 27.5
00:10 1009 29.8 839 24.78 21.2 70.1 20 -2.4 27.7
00:15 1009 29.8 839 24.78 21.3 70.3 19 -2.8 26.9
00:20 1009 29.8 839 24.78 21.3 70.4 20 -2.3 27.8
00:25 1009 29.8 839 24.78 21.1 70 21 -2.2 28.1
00:30 1009 29.8 838 24.75 21.1 70 20 -2.3 27.9
00:35 1009 29.8 838 24.75 21.1 69.9 21 -2.1 28.2
00:40 1009 29.8 838 24.75 20.9 69.6 21 -1.9 28.5
00:45 1009 29.8 838 24.75 20.8 69.4 21 -2.3 27.9
00:50 1009 29.8 838 24.75 20.8 69.5 21 -2.2 28.1
00:55 1009 29.8 838 24.75 20.7 69.2 22 -1.8 28.7
01:00 1009 29.8 838 24.75 20.5 68.9 22 -2 28.5
01:05 1009 29.8 838 24.75 20.5 69 22 -1.9 28.5
01:10 1009 29.8 838 24.75 20.4 68.7 22 -1.6 29.1
01:15 1009 29.8 838 24.75 20.1 68.2 22 -1.9 28.7
01:20 1009 29.8 838 24.75 20.1 68.2 23 -1.8 28.7
01:25 1009 29.8 838 24.75 20 68.1 23 -1.7 29
01:30 1009 29.8 838 24.75 20 68 22 -2 28.4
01:35 1009 29.8 838 24.75 20.1 68.2 23 -1.6 29.1
01:40 1009 29.8 838 24.75 19.9 67.8 23 -1.8 28.8
01:45 1009 29.8 838 24.75 19.9 67.8 23 -1.7 28.9
01:50 1009 29.8 838 24.75 20.1 68.2 21 -2.6 27.3
01:55 1009 29.8 838 24.75 20.5 69 21 -2.4 27.8
02:00 1009 29.8 838 24.75 20.5 68.8 21 -2.4 27.6
02:05 1009 29.8 838 24.75 20.6 69 21 -2.6 27.4
02:10 1009 29.8 838 24.75 20.6 69.1 21 -2.6 27.3
02:15 1008 29.77 838 24.75 20.4 68.8 20 -2.9 26.7
02:20 1008 29.77 838 24.75 20.5 68.9 20 -3.1 26.4
02:25 1008 29.77 838 24.75 20.6 69.1 20 -3.2 26.2
02:30 1008 29.77 838 24.75 20.6 69 20 -2.8 27
02:35 1008 29.77 838 24.75 20.4 68.8 20 -3.2 26.2
02:40 1008 29.77 838 24.75 20.4 68.7 20 -3.2 26.3
02:45 1008 29.77 838 24.75 20.3 68.5 20 -3.1 26.4
02:50 1008 29.77 838 24.75 20.3 68.5 20 -3.1 26.5
02:55 1008 29.77 838 24.75 20 68 21 -2.7 27.1
03:00 1008 29.77 837 24.72 19.8 67.6 21 -3 26.5
03:05 1008 29.77 837 24.72 19.6 67.3 21 -3 26.6
03:10 1008 29.77 837 24.72 19.6 67.2 21 -3.4 25.8
03:15 1008 29.77 837 24.72 19.6 67.3 21 -3.4 25.9
03:20 1008 29.77 837 24.72 19.5 67.1 21 -3 26.5
03:25 1008 29.77 837 24.72 19.3 66.7 21 -3.3 26.1
03:30 1008 29.77 837 24.72 19.3 66.7 21 -3.3 26
03:35 1008 29.77 837 24.72 19.4 66.9 21 -3.5 25.7
03:40 1008 29.77 838 24.75 19.3 66.7 21 -3.6 25.5
03:45 1008 29.77 838 24.75 19.3 66.7 21 -3.8 25.2
03:50 1009 29.8 838 24.75 19.2 66.5 21 -3.6 25.6
03:55 1009 29.8 838 24.75 19.2 66.6 20 -4.1 24.7
04:00 1009 29.8 838 24.75 19.6 67.3 19 -4.3 24.2
04:05 1009 29.8 838 24.75 19.8 67.6 19 -4.1 24.7
04:10 1009 29.8 838 24.75 19.9 67.8 20 -3.7 25.3
04:15 1009 29.8 838 24.75 19.8 67.6 26 -0.3 31.5
04:20 1009 29.8 838 24.75 17.8 64 36 2.7 36.9
04:25 1009 29.8 839 24.78 16 60.8 42 3 37.4
04:30 1010 29.83 839 24.78 15.4 59.6 44 3.2 37.8
04:35 1010 29.83 839 24.78 14.5 58.2 47 3.4 38.1
04:40 1010 29.83 840 24.81 13.7 56.7 48 3 37.5
04:45 1011 29.85 840 24.81 13.4 56 49 3 37.4
04:50 1011 29.85 840 24.81 13.1 55.6 50 2.9 37.1
04:55 1011 29.85 840 24.81 12.9 55.2 50 2.9 37.2
05:00 1012 29.88 841 24.83 12.7 54.8 51 2.9 37.1
05:05 1012 29.88 841 24.83 12.4 54.4 51 2.7 36.8
05:10 1013 29.91 842 24.86 12.3 54.2 51 2.5 36.5
05:15 1013 29.91 842 24.86 12.2 53.9 46 0.9 33.7
05:20 1013 29.91 842 24.86 11.9 53.5 44 0 32.1
05:25 1013 29.91 843 24.89 11.8 53.2 44 -0.1 31.9
05:30 1014 29.94 843 24.89 11.7 53 43 -0.4 31.3
05:35 1014 29.94 843 24.89 11.5 52.8 44 -0.3 31.4
05:40 1015 29.97 844 24.92 11.4 52.5 44 -0.5 31.1
05:45 1015 29.97 844 24.92 11.2 52.1 45 -0.3 31.5
05:50 1015 29.97 844 24.92 10.9 51.6 48 0.4 32.7
05:55 1015 29.97 844 24.92 10.6 51.1 47 -0.1 31.7
06:00 1015 29.97 845 24.95 10.5 50.9 48 0.1 32.2
06:05 1016 30 845 24.95 10.4 50.8 47 -0.2 31.6
06:10 1016 30 845 24.95 10.3 50.5 48 -0.1 31.8
06:15 1016 30 845 24.95 10.2 50.3 53 0.9 33.7
06:20 1016 30 845 24.95 9.9 49.8 57 1.8 35.2
06:25 1017 30.03 846 24.98 9.5 49.1 62 2.7 36.8
06:30 1017 30.03 846 24.98 9.1 48.4 59 1.7 35
06:35 1017 30.03 846 24.98 9.1 48.4 60 1.9 35.4
06:40 1017 30.03 846 24.98 9.1 48.4 61 2 35.7
06:45 1017 30.03 846 24.98 9 48.2 63 2.4 36.3
06:50 1017 30.03 846 24.98 8.9 48.1 62 2 35.6
06:55 1017 30.03 846 24.98 8.8 47.8 62 2 35.6
07:00 1017 30.03 846 24.98 8.7 47.6 64 2.3 36.2
07:05 1017 30.03 846 24.98 8.5 47.4 66 2.5 36.5
07:10 1017 30.03 846 24.98 8.5 47.3 64 2.2 35.9
07:15 1017 30.03 846 24.98 8.7 47.6 59 1.2 34.1
07:20 1017 30.03 846 24.98 8.8 47.8 68 3.1 37.7
07:25 1017 30.03 846 24.98 8.2 46.8 68 2.8 37
07:30 1017 30.03 846 24.98 8.1 46.6 67 2.5 36.4
07:35 1017 30.03 846 24.98 8.3 46.9 69 2.9 37.3
07:40 1017 30.03 846 24.98 8.3 47 67 2.7 36.9
07:45 1017 30.03 846 24.98 8.7 47.6 61 1.5 34.8
07:50 1017 30.03 846 24.98 9.1 48.4 60 1.8 35.3
07:55 1017 30.03 846 24.98 9.1 48.5 60 1.9 35.4
08:00 1017 30.03 846 24.98 9.2 48.6 59 1.7 35
08:05 1017 30.03 846 24.98 9.3 48.8 56 1.2 34.1
08:10 1017 30.03 846 24.98 9.7 49.5 56 1.4 34.5
08:15 1017 30.03 846 24.98 9.8 49.6 54 0.9 33.7
08:20 1017 30.03 846 24.98 9.9 49.7 51 0.3 32.5
08:25 1017 30.03 846 24.98 10.2 50.3 49 0.1 32.2
08:30 1017 30.03 846 24.98 10.4 50.7 47 -0.4 31.3
08:35 1017 30.03 846 24.98 10.5 50.9 48 -0.1 31.8
08:40 1017 30.03 846 24.98 10.7 51.2 46 -0.6 30.9
08:45 1017 30.03 846 24.98 10.8 51.5 45 -0.7 30.8
08:50 1017 30.03 846 24.98 11 51.8 45 -0.3 31.5
08:55 1017 30.03 846 24.98 11.2 52.2 46 -0 32
09:00 1017 30.03 846 24.98 11.4 52.6 40 -1.6 29.2
09:05 1017 30.03 846 24.98 11.4 52.5 38 -2.3 27.9
09:10 1017 30.03 846 24.98 11.2 52.2 39 -2.1 28.3
09:15 1017 30.03 846 24.98 11.2 52.1 40 -1.9 28.5
09:20 1017 30.03 846 24.98 11.3 52.3 40 -1.8 28.7
09:25 1017 30.03 846 24.98 11.5 52.8 38 -2.3 27.8
09:30 1017 30.03 847 25.01 11.7 53.1 39 -1.9 28.6
09:35 1018 30.06 847 25.01 12 53.7 38 -1.9 28.6
09:40 1018 30.06 847 25.01 12.2 54 34 -3.1 26.4
09:45 1018 30.06 847 25.01 12.3 54.1 32 -3.9 25
09:50 1018 30.06 847 25.01 12.7 54.8 31 -4.1 24.6
09:55 1018 30.06 847 25.01 13.2 55.7 30 -4 24.8
10:00 1018 30.06 847 25.01 13.6 56.6 29 -4 24.8
10:05 1018 30.06 847 25.01 13.8 56.8 27 -4.8 23.4
10:10 1018 30.06 847 25.01 13.7 56.6 26 -5.2 22.7
10:15 1018 30.06 847 25.01 13.6 56.5 27 -4.8 23.4
10:20 1018 30.06 847 25.01 13.2 55.8 27 -5.2 22.7
10:25 1018 30.06 847 25.01 12.7 54.9 28 -5.3 22.5
10:30 1018 30.06 847 25.01 12.8 55 27 -5.8 21.5
10:35 1018 30.06 847 25.01 12.9 55.2 26 -6 21.1
10:40 1018 30.06 847 25.01 12.9 55.2 26 -6.2 20.8
10:45 1018 30.06 847 25.01 12.8 55 26 -6.2 20.8
10:50 1018 30.06 847 25.01 12.6 54.8 23 -8.1 17.4
10:55 1018 30.06 847 25.01 12.7 54.8 23 -7.8 18
11:00 1018 30.06 847 25.01 12.8 55 22 -8.5 16.8
11:05 1018 30.06 847 25.01 13.4 56.2 22 -7.7 18.1
11:10 1018 30.06 847 25.01 13.8 56.9 21 -8.3 17.1
11:15 1018 30.06 847 25.01 13.9 57 19 -9 15.8
11:20 1018 30.06 847 25.01 14.2 57.6 19 -9.4 15.1
11:25 1018 30.06 847 25.01 14.3 57.8 20 -8.4 16.8
11:30 1018 30.06 847 25.01 14.3 57.8 20 -8.5 16.8
11:35 1018 30.06 847 25.01 14.5 58.1 20 -8.3 17.1
11:40 1018 30.06 847 25.01 14.3 57.8 21 -7.7 18.2
11:45 1018 30.06 847 25.01 14.2 57.5 22 -7.3 18.8
11:50 1018 30.06 847 25.01 13.6 56.5 22 -7.8 18
11:55 1018 30.06 848 25.04 13.4 56.2 23 -7.3 18.9
12:00 1018 30.06 848 25.04 13.8 56.8 20 -8.6 16.5
12:05 1019 30.09 848 25.04 14.5 58 21 -7.7 18.1
12:10 1019 30.09 848 25.04 14.9 58.9 20 -8 17.6
12:15 1019 30.09 848 25.04 15.1 59.3 20 -7.4 18.7
12:20 1019 30.09 848 25.04 14.4 57.9 21 -7.4 18.6
12:25 1019 30.09 848 25.04 13.8 56.9 21 -8 17.6
12:30 1019 30.09 848 25.04 13.5 56.4 23 -7.3 18.9
12:35 1019 30.09 848 25.04 14 57.3 22 -7.5 18.4
12:40 1019 30.09 848 25.04 13.9 57.1 18 -10.2 13.6
12:45 1018 30.06 848 25.04 14.4 57.9 17 -10.2 13.6
12:50 1018 30.06 848 25.04 14.3 57.8 19 -9.1 15.6
12:55 1019 30.09 848 25.04 14.6 58.2 20 -8.3 17.1
13:00 1019 30.09 848 25.04 15.2 59.3 19 -8.3 17.1
13:05 1019 30.09 848 25.04 15.1 59.1 20 -7.7 18.2
13:10 1019 30.09 848 25.04 14.7 58.4 19 -8.4 16.9
13:15 1018 30.06 848 25.04 14.3 57.7 20 -8.6 16.5
13:20 1018 30.06 848 25.04 14.2 57.6 20 -8.5 16.7
13:25 1018 30.06 848 25.04 13.9 57.1 21 -8.2 17.2
13:30 1018 30.06 847 25.01 13.9 57 20 -8.7 16.4
13:35 1018 30.06 847 25.01 14.4 57.8 20 -8.5 16.6
13:40 1018 30.06 848 25.04 15.1 59.1 18 -9.4 15.1
13:45 1018 30.06 848 25.04 15.2 59.4 18 -9 15.8
13:50 1018 30.06 848 25.04 15.1 59.1 18 -8.8 16.1
13:55 1019 30.09 848 25.04 15.4 59.7 18 -8.8 16.1
14:00 1019 30.09 848 25.04 15.5 59.9 17 -9.3 15.2
14:05 1019 30.09 848 25.04 15.3 59.6 17 -9.6 14.7
14:10 1019 30.09 848 25.04 14.8 58.7 18 -9.4 15.1
14:15 1019 30.09 848 25.04 14.5 58.1 19 -9.1 15.7
14:20 1019 30.09 848 25.04 14.9 58.8 18 -9.4 15.1
14:25 1019 30.09 848 25.04 15.2 59.4 18 -9 15.7
14:30 1019 30.09 848 25.04 15.4 59.6 19 -8.4 16.8
14:35 1019 30.09 848 25.04 15.6 60.1 17 -9.5 15
14:40 1019 30.09 848 25.04 15.4 59.7 17 -9.2 15.4
14:45 1019 30.09 848 25.04 15.4 59.7 17 -9.3 15.3
14:50 1019 30.09 848 25.04 15.4 59.8 18 -9 15.9
14:55 1019 30.09 848 25.04 15.6 60.1 18 -8.3 17
15:00 1019 30.09 848 25.04 15.6 60.1 16 -9.9 14.2
15:05 1019 30.09 849 25.07 15.6 60.1 16 -9.7 14.5
15:10 1019 30.09 848 25.04 15.5 59.8 17 -9.8 14.4
15:15 1019 30.09 848 25.04 15.2 59.4 15 -10.9 12.4
15:20 1019 30.09 848 25.04 15.2 59.3 17 -9.9 14.2
15:25 1019 30.09 849 25.07 15.3 59.5 16 -10 14
15:30 1019 30.09 849 25.07 15.2 59.3 16 -10.1 13.9
15:35 1019 30.09 849 25.07 15.2 59.4 17 -9.8 14.4
15:40 1019 30.09 849 25.07 15.3 59.5 17 -9.5 14.9
15:45 1019 30.09 849 25.07 15.2 59.4 17 -9.9 14.2
15:50 1019 30.09 849 25.07 15.2 59.4 16 -10.2 13.6
15:55 1019 30.09 849 25.07 15.3 59.6 16 -10 14.1
16:00 1019 30.09 849 25.07 15.2 59.3 17 -10 14
16:05 1019 30.09 849 25.07 15.3 59.5 17 -9.8 14.4
16:10 1019 30.09 849 25.07 15.1 59.3 16 -10.4 13.3
16:15 1019 30.09 849 25.07 15 58.9 17 -10.1 13.8
16:20 1020 30.12 849 25.07 14.9 58.8 17 -10 14.1
16:25 1020 30.12 849 25.07 14.9 58.8 17 -9.8 14.4
16:30 1020 30.12 849 25.07 14.9 58.8 17 -9.6 14.8
16:35 1020 30.12 849 25.07 14.8 58.7 17 -9.8 14.4
16:40 1020 30.12 849 25.07 14.7 58.4 17 -9.8 14.4
16:45 1020 30.12 849 25.07 14.7 58.4 17 -9.8 14.3
16:50 1020 30.12 849 25.07 14.5 58.1 18 -9.5 14.9
16:55 1020 30.12 849 25.07 14.4 57.9 18 -9.5 14.9
17:00 1020 30.12 849 25.07 14.3 57.7 19 -9.3 15.2
17:05 1020 30.12 849 25.07 14.2 57.6 19 -9.4 15.1
17:10 1020 30.12 849 25.07 14.1 57.3 19 -9.4 15.2
17:15 1020 30.12 849 25.07 13.9 57.1 19 -9.6 14.7
17:20 1020 30.12 849 25.07 13.8 56.8 19 -9.5 14.9
17:25 1020 30.12 849 25.07 13.7 56.6 19 -9.4 15.1
17:30 1020 30.12 849 25.07 13.5 56.4 20 -9.1 15.6
17:35 1020 30.12 849 25.07 13.3 56 20 -9.1 15.6
17:40 1020 30.12 849 25.07 13.1 55.6 21 -9 15.8
17:45 1020 30.12 849 25.07 12.8 55 21 -8.8 16.1
17:50 1020 30.12 850 25.1 12.6 54.6 22 -8.6 16.5
17:55 1021 30.15 850 25.1 12.3 54.1 22 -8.6 16.5
18:00 1021 30.15 850 25.1 11.9 53.5 23 -8.4 16.8
18:05 1021 30.15 850 25.1 11.6 52.8 24 -8.5 16.7
18:10 1021 30.15 850 25.1 11.4 52.4 24 -8.6 16.6
18:15 1021 30.15 850 25.1 11.2 52.1 24 -8.5 16.7
18:20 1021 30.15 850 25.1 11 51.9 24 -8.7 16.4
18:25 1021 30.15 850 25.1 10.9 51.6 24 -8.8 16.1
18:30 1021 30.15 850 25.1 10.8 51.5 24 -8.9 15.9
18:35 1021 30.15 850 25.1 10.8 51.4 24 -8.8 16.1
18:40 1021 30.15 851 25.13 10.6 51.2 25 -8.7 16.4
18:45 1022 30.18 851 25.13 10.6 51 25 -8.9 16.1
18:50 1022 30.18 851 25.13 10.5 50.8 25 -8.6 16.5
18:55 1022 30.18 851 25.13 10.2 50.4 26 -8.3 17
19:00 1022 30.18 851 25.13 9.9 49.8 27 -8.1 17.4
19:05 1022 30.18 851 25.13 9.5 49.1 28 -8.3 17.1
19:10 1022 30.18 851 25.13 9.4 48.8 28 -8.2 17.2
19:15 1022 30.18 852 25.16 9.3 48.8 28 -8.1 17.5
19:20 1023 30.21 852 25.16 9.2 48.5 29 -7.8 18
19:25 1023 30.21 852 25.16 8.9 48.1 30 -7.6 18.2
19:30 1023 30.21 852 25.16 8.8 47.8 31 -7.5 18.5
19:35 1023 30.21 852 25.16 8.4 47.2 32 -7.5 18.6
19:40 1023 30.21 852 25.16 7.9 46.2 33 -7.3 18.9
19:45 1023 30.21 852 25.16 7.2 45 34 -7.6 18.3
19:50 1023 30.21 852 25.16 7.2 44.9 34 -7.8 17.9
19:55 1023 30.21 853 25.19 7.2 44.9 34 -7.8 17.9
20:00 1023 30.21 853 25.19 7.2 45 33 -8 17.6
20:05 1023 30.21 853 25.19 7.3 45.2 33 -7.8 17.9
20:10 1023 30.21 853 25.19 7.2 44.9 34 -7.8 18
20:15 1023 30.21 853 25.19 7.2 44.9 32 -8.2 17.2
20:20 1023 30.21 853 25.19 7.6 45.8 32 -8.1 17.4
20:25 1023 30.21 852 25.16 7.6 45.7 32 -7.9 17.7
20:30 1023 30.21 852 25.16 8 46.3 31 -8.2 17.2
20:35 1023 30.21 852 25.16 8.5 47.4 31 -7.8 18
20:40 1023 30.21 852 25.16 8.6 47.5 31 -7.6 18.3
20:45 1023 30.21 852 25.16 8.6 47.4 31 -7.5 18.5
20:50 1023 30.21 853 25.19 8.4 47.2 32 -7.5 18.5
20:55 1024 30.24 853 25.19 7.8 46 35 -6.7 19.9
21:00 1024 30.24 853 25.19 7 44.6 35 -7.4 18.7
21:05 1024 30.24 853 25.19 7.3 45.1 33 -8 17.5
21:10 1024 30.24 853 25.19 7.9 46.3 32 -7.9 17.8
21:15 1024 30.24 853 25.19 8.1 46.6 32 -7.6 18.3
21:20 1024 30.24 853 25.19 7.5 45.4 33 -7.6 18.2
21:25 1024 30.24 853 25.19 7 44.6 33 -8.3 17.1
21:30 1024 30.24 853 25.19 7.6 45.6 31 -8.5 16.6
21:35 1024 30.24 853 25.19 8.1 46.6 30 -8.3 17.1
21:40 1024 30.24 853 25.19 8.1 46.6 33 -7.1 19.2
21:45 1024 30.24 853 25.19 7 44.6 37 -6.7 20
21:50 1024 30.24 853 25.19 6.6 43.8 35 -7.7 18.1
21:55 1024 30.24 853 25.19 6.9 44.4 35 -7.6 18.4
22:00 1024 30.24 853 25.19 6.6 43.9 36 -7.4 18.7
22:05 1024 30.24 853 25.19 6.2 43.2 40 -6.5 20.3
22:10 1024 30.24 853 25.19 5.5 41.9 42 -6.4 20.5
22:15 1024 30.24 853 25.19 5.5 41.9 41 -6.7 19.9
22:20 1024 30.24 853 25.19 6.1 43 37 -7.6 18.2
22:25 1024 30.24 853 25.19 6 42.9 39 -6.8 19.8
22:30 1024 30.24 853 25.19 5.5 41.9 41 -6.7 19.9
22:35 1024 30.24 853 25.19 5.3 41.5 41 -7.1 19.3
22:40 1024 30.24 853 25.19 5.4 41.7 40 -7.1 19.1
22:45 1024 30.24 853 25.19 5.7 42.2 39 -7.2 19.1
22:50 1024 30.24 853 25.19 5.6 42.1 40 -7 19.4
22:55 1024 30.24 853 25.19 5.5 41.9 40 -7.1 19.2
23:00 1024 30.24 853 25.19 5.3 41.5 41 -6.8 19.8
23:05 1024 30.24 853 25.19 5.2 41.4 40 -7.2 19.1
23:10 1024 30.24 853 25.19 5.4 41.7 39 -7.4 18.7
23:15 1024 30.24 853 25.19 5.2 41.4 40 -7.1 19.2
23:20 1024 30.24 853 25.19 5.2 41.4 38 -7.9 17.8
23:25 1024 30.24 853 25.19 5.6 42 39 -7.4 18.6
23:30 1024 30.24 853 25.19 5.5 41.8 40 -7.1 19.2
23:35 1024 30.24 853 25.19 5.4 41.7 39 -7.4 18.6
23:40 1024 30.24 853 25.19 5.2 41.3 40 -7.2 19
23:45 1024 30.24 853 25.19 5.1 41.2 39 -7.7 18.1
23:50 1024 30.24 853 25.19 5.4 41.8 37 -8.1 17.4
23:55 1024 30.24 853 25.19 5.3 41.6 41 -6.8 19.7
24:00 1024 30.24 853 25.19 4.8 40.7 41 -7.3 18.8